sensor_id;sensor_type;location;lat;lon;timestamp;pressure;altitude;pressure_sealevel;temperature;humidity
30463;BME280;17256;43.618;25.336;2023-02-13T04:56:21;102804.16;;;1.17;100.00
30463;BME280;17256;43.618;25.336;2023-02-13T05:16:45;102801.78;;;1.11;100.00
30463;BME280;17256;43.618;25.336;2023-02-13T05:52:52;102823.13;;;1.33;100.00
30463;BME280;17256;43.618;25.336;2023-02-13T05:56:53;102823.06;;;1.50;100.00
30463;BME280;17256;43.618;25.336;2023-02-13T07:22:35;102401.38;;;1.80;85.75
30463;BME280;17256;43.618;25.336;2023-02-13T07:26:40;102467.16;;;2.65;85.35
30463;BME280;17256;43.618;25.336;2023-02-13T07:29:58;102479.16;;;3.15;82.99
30463;BME280;17256;43.618;25.336;2023-02-13T07:33:14;102695.53;;;4.71;77.94
30463;BME280;17256;43.618;25.336;2023-02-13T07:36:44;102842.31;;;5.50;77.06
30463;BME280;17256;43.618;25.336;2023-02-13T07:39:30;102841.63;;;5.60;78.68
30463;BME280;17256;43.618;25.336;2023-02-13T07:42:13;102766.69;;;5.16;75.94
30463;BME280;17256;43.618;25.336;2023-02-13T07:45:49;102394.13;;;3.27;77.04
30463;BME280;17256;43.618;25.336;2023-02-13T07:57:02;102665.94;;;4.54;81.78
30463;BME280;17256;43.618;25.336;2023-02-13T08:00:49;102423.75;;;3.04;82.05
30463;BME280;17256;43.618;25.336;2023-02-13T08:08:31;102836.97;;;5.85;85.44
30463;BME280;17256;43.618;25.336;2023-02-13T08:12:44;102827.25;;;6.18;82.28
30463;BME280;17256;43.618;25.336;2023-02-13T08:19:34;102593.38;;;4.78;80.29
30463;BME280;17256;43.618;25.336;2023-02-13T08:23:01;102833.66;;;6.30;80.76
30463;BME280;17256;43.618;25.336;2023-02-13T08:26:57;102417.63;;;3.90;81.27
30463;BME280;17256;43.618;25.336;2023-02-13T08:34:41;102831.84;;;6.76;81.39
30463;BME280;17256;43.618;25.336;2023-02-13T08:37:53;102834.06;;;6.83;80.30
30463;BME280;17256;43.618;25.336;2023-02-13T08:41:32;102440.88;;;4.67;79.29
30463;BME280;17256;43.618;25.336;2023-02-13T08:44:25;102814.38;;;7.13;78.42
30463;BME280;17256;43.618;25.336;2023-02-13T08:47:35;102670.53;;;6.33;78.89
30463;BME280;17256;43.618;25.336;2023-02-13T08:51:06;102383.28;;;4.73;77.90
30463;BME280;17256;43.618;25.336;2023-02-13T08:57:22;102568.31;;;6.48;76.71
30463;BME280;17256;43.618;25.336;2023-02-13T09:00:14;102640.66;;;6.76;75.98
30463;BME280;17256;43.618;25.336;2023-02-13T09:02:46;102585.53;;;6.60;74.83
30463;BME280;17256;43.618;25.336;2023-02-13T09:05:29;102627.84;;;6.66;75.82
30463;BME280;17256;43.618;25.336;2023-02-13T09:08:31;102671.81;;;6.85;77.25
30463;BME280;17256;43.618;25.336;2023-02-13T09:11:35;102436.97;;;6.08;75.07
30463;BME280;17256;43.618;25.336;2023-02-13T09:14:02;102731.00;;;7.84;72.66
30463;BME280;17256;43.618;25.336;2023-02-13T09:16:29;102430.88;;;5.82;72.32
30463;BME280;17256;43.618;25.336;2023-02-13T09:19:00;102825.75;;;8.28;72.22
30463;BME280;17256;43.618;25.336;2023-02-13T09:21:26;102506.16;;;6.30;72.53
30463;BME280;17256;43.618;25.336;2023-02-13T09:23:59;102337.06;;;5.18;71.96
30463;BME280;17256;43.618;25.336;2023-02-13T09:26:26;102428.53;;;5.89;72.71
30463;BME280;17256;43.618;25.336;2023-02-13T09:28:53;102390.38;;;5.78;71.80
30463;BME280;17256;43.618;25.336;2023-02-13T09:31:24;102667.50;;;7.37;72.77
30463;BME280;17256;43.618;25.336;2023-02-13T09:33:51;102627.59;;;7.02;73.47
30463;BME280;17256;43.618;25.336;2023-02-13T09:36:26;102786.56;;;7.95;73.86
30463;BME280;17256;43.618;25.336;2023-02-13T09:39:03;102742.88;;;8.05;73.51
30463;BME280;17256;43.618;25.336;2023-02-13T09:41:33;102655.88;;;7.56;74.24
30463;BME280;17256;43.618;25.336;2023-02-13T09:47:34;102784.16;;;8.45;76.05
30463;BME280;17256;43.618;25.336;2023-02-13T09:50:24;102543.47;;;7.38;74.02
30463;BME280;17256;43.618;25.336;2023-02-13T09:53:00;102508.38;;;6.90;74.06
30463;BME280;17256;43.618;25.336;2023-02-13T09:55:45;102620.03;;;7.70;74.15
30463;BME280;17256;43.618;25.336;2023-02-13T10:01:34;102677.53;;;8.32;73.92
30463;BME280;17256;43.618;25.336;2023-02-13T10:07:32;102744.28;;;9.04;70.94
30463;BME280;17256;43.618;25.336;2023-02-13T10:17:00;102370.75;;;6.82;69.31
30463;BME280;17256;43.618;25.336;2023-02-13T10:19:48;102449.06;;;7.55;68.11
30463;BME280;17256;43.618;25.336;2023-02-13T10:22:22;102549.47;;;8.15;67.44
30463;BME280;17256;43.618;25.336;2023-02-13T10:25:03;102334.56;;;6.68;68.35
30463;BME280;17256;43.618;25.336;2023-02-13T10:27:58;102641.06;;;8.53;68.96
30463;BME280;17256;43.618;25.336;2023-02-13T10:30:44;102651.44;;;8.49;70.38
30463;BME280;17256;43.618;25.336;2023-02-13T10:33:26;102499.28;;;7.95;68.82
30463;BME280;17256;43.618;25.336;2023-02-13T10:36:30;102712.34;;;9.33;67.99
30463;BME280;17256;43.618;25.336;2023-02-13T10:39:36;102434.81;;;7.82;67.59
30463;BME280;17256;43.618;25.336;2023-02-13T10:48:44;102300.72;;;7.22;66.84
30463;BME280;17256;43.618;25.336;2023-02-13T10:51:42;102700.03;;;9.68;66.12
30463;BME280;17256;43.618;25.336;2023-02-13T10:54:50;102288.41;;;7.37;65.63
30463;BME280;17256;43.618;25.336;2023-02-13T10:57:35;102601.34;;;9.28;64.94
30463;BME280;17256;43.618;25.336;2023-02-13T11:03:00;102467.13;;;8.28;65.10
30463;BME280;17256;43.618;25.336;2023-02-13T11:05:42;102254.84;;;7.26;64.78
30463;BME280;17256;43.618;25.336;2023-02-13T11:08:21;102315.97;;;7.55;65.68
30463;BME280;17256;43.618;25.336;2023-02-13T11:13:38;102210.38;;;6.93;65.21
30463;BME280;17256;43.618;25.336;2023-02-13T11:16:08;102260.31;;;7.26;64.64
30463;BME280;17256;43.618;25.336;2023-02-13T11:18:48;102273.06;;;7.46;63.94
30463;BME280;17256;43.618;25.336;2023-02-13T11:21:30;102620.44;;;9.58;64.71
30463;BME280;17256;43.618;25.336;2023-02-13T11:24:00;102660.72;;;10.06;64.31
30463;BME280;17256;43.618;25.336;2023-02-13T11:26:33;102251.03;;;7.48;64.72
30463;BME280;17256;43.618;25.336;2023-02-13T11:29:17;102378.75;;;8.16;65.26
30463;BME280;17256;43.618;25.336;2023-02-13T11:32:00;102665.06;;;9.79;65.34
30463;BME280;17256;43.618;25.336;2023-02-13T11:34:46;102561.94;;;9.09;66.43
30463;BME280;17256;43.618;25.336;2023-02-13T11:37:22;102360.97;;;7.91;66.52
30463;BME280;17256;43.618;25.336;2023-02-13T11:39:53;102325.53;;;7.80;67.92
30463;BME280;17256;43.618;25.336;2023-02-13T11:42:45;102633.88;;;9.71;67.79
30463;BME280;17256;43.618;25.336;2023-02-13T11:45:22;102363.22;;;8.17;66.78
30463;BME280;17256;43.618;25.336;2023-02-13T11:47:54;102262.56;;;7.61;65.63
30463;BME280;17256;43.618;25.336;2023-02-13T11:50:34;102217.03;;;7.40;65.73
30463;BME280;17256;43.618;25.336;2023-02-13T11:53:20;102486.03;;;8.90;64.84
30463;BME280;17256;43.618;25.336;2023-02-13T11:58:34;102370.34;;;8.39;63.70
30463;BME280;17256;43.618;25.336;2023-02-13T12:01:27;102614.22;;;9.66;65.18
30463;BME280;17256;43.618;25.336;2023-02-13T12:04:16;102610.34;;;9.68;65.14
30463;BME280;17256;43.618;25.336;2023-02-13T12:07:18;102421.28;;;8.70;65.50
30463;BME280;17256;43.618;25.336;2023-02-13T12:10:19;102603.22;;;9.85;65.89
30463;BME280;17256;43.618;25.336;2023-02-13T12:13:34;102190.31;;;7.44;65.55
30463;BME280;17256;43.618;25.336;2023-02-13T12:16:59;102405.69;;;8.80;65.88
30463;BME280;17256;43.618;25.336;2023-02-13T12:19:52;102598.91;;;9.82;65.74
30463;BME280;17256;43.618;25.336;2023-02-13T12:23:16;102428.06;;;8.95;66.05
30463;BME280;17256;43.618;25.336;2023-02-13T12:26:37;102146.78;;;7.12;66.14
30463;BME280;17256;43.618;25.336;2023-02-13T13:22:52;102551.41;;;9.34;65.18
30463;BME280;17256;43.618;25.336;2023-02-13T13:25:55;102303.84;;;7.98;65.54
30463;BME280;17256;43.618;25.336;2023-02-13T13:28:36;102303.13;;;7.96;65.45
30463;BME280;17256;43.618;25.336;2023-02-13T13:31:06;102333.09;;;8.07;65.33
30463;BME280;17256;43.618;25.336;2023-02-13T13:33:40;102541.75;;;9.49;66.21
30463;BME280;17256;43.618;25.336;2023-02-13T13:36:33;102542.19;;;9.54;65.93
30463;BME280;17256;43.618;25.336;2023-02-13T13:39:34;102542.59;;;9.40;66.22
30463;BME280;17256;43.618;25.336;2023-02-13T13:42:50;102290.13;;;7.88;66.41
30463;BME280;17256;43.618;25.336;2023-02-13T13:53:08;102378.94;;;8.24;66.63
30463;BME280;17256;43.618;25.336;2023-02-13T14:04:36;102521.09;;;8.97;69.11
30463;BME280;17256;43.618;25.336;2023-02-13T14:07:35;102353.75;;;7.81;69.34
30463;BME280;17256;43.618;25.336;2023-02-13T14:11:00;102503.75;;;8.77;70.38
30463;BME280;17256;43.618;25.336;2023-02-13T14:13:41;102106.63;;;6.32;70.73
30463;BME280;17256;43.618;25.336;2023-02-13T14:16:45;102088.63;;;6.20;71.29
30463;BME280;17256;43.618;25.336;2023-02-13T14:19:23;102490.00;;;8.57;72.08
30463;BME280;17256;43.618;25.336;2023-02-13T14:25:19;102495.03;;;8.43;72.48
30463;BME280;17256;43.618;25.336;2023-02-13T14:35:28;102141.34;;;6.21;71.82
30463;BME280;17256;43.618;25.336;2023-02-13T14:39:26;102316.09;;;7.23;72.83
30463;BME280;17256;43.618;25.336;2023-02-13T14:42:33;102090.19;;;5.81;74.54
30463;BME280;17256;43.618;25.336;2023-02-13T14:50:53;102408.66;;;7.58;77.41
30463;BME280;17256;43.618;25.336;2023-02-13T15:03:04;102084.69;;;5.39;77.61
30463;BME280;17256;43.618;25.336;2023-02-13T15:09:59;102483.81;;;7.64;79.55
30463;BME280;17256;43.618;25.336;2023-02-13T15:16:21;102479.00;;;7.56;79.61
30463;BME280;17256;43.618;25.336;2023-02-13T15:20:42;102475.69;;;7.53;79.99
30463;BME280;17256;43.618;25.336;2023-02-13T15:23:41;102049.06;;;4.88;80.80
30463;BME280;17256;43.618;25.336;2023-02-13T15:26:28;102454.13;;;7.18;81.25
30463;BME280;17256;43.618;25.336;2023-02-13T15:30:02;102058.84;;;4.68;81.47
30463;BME280;17256;43.618;25.336;2023-02-13T15:36:03;102472.91;;;7.11;82.37
30463;BME280;17256;43.618;25.336;2023-02-13T15:39:02;102097.84;;;4.57;83.99
30463;BME280;17256;43.618;25.336;2023-02-13T15:41:41;102063.09;;;4.27;84.76
30463;BME280;17256;43.618;25.336;2023-02-13T15:44:34;102068.16;;;4.32;85.04
30463;BME280;17256;43.618;25.336;2023-02-13T15:47:40;102207.84;;;5.00;86.33
30463;BME280;17256;43.618;25.336;2023-02-13T15:52:14;102222.19;;;5.02;86.64
30463;BME280;17256;43.618;25.336;2023-02-13T15:55:03;102032.63;;;3.78;87.38
30463;BME280;17256;43.618;25.336;2023-02-13T15:58:14;102230.72;;;4.86;88.28
30463;BME280;17256;43.618;25.336;2023-02-13T16:02:15;102113.06;;;3.91;90.46
30463;BME280;17256;43.618;25.336;2023-02-13T16:05:49;102225.28;;;4.75;89.87
30463;BME280;17256;43.618;25.336;2023-02-13T16:09:39;102470.47;;;6.10;90.97
30463;BME280;17256;43.618;25.336;2023-02-13T16:17:55;102187.16;;;4.17;94.41
30463;BME280;17256;43.618;25.336;2023-02-13T16:21:51;102315.09;;;4.75;95.05
30463;BME280;17256;43.618;25.336;2023-02-13T16:57:50;102016.16;;;2.50;99.86
30463;BME280;17256;43.618;25.336;2023-02-13T17:01:27;102476.09;;;5.16;100.00
30463;BME280;17256;43.618;25.336;2023-02-13T17:14:50;102469.38;;;4.98;99.31
30463;BME280;17256;43.618;25.336;2023-02-13T17:18:50;102483.66;;;4.89;100.00
30463;BME280;17256;43.618;25.336;2023-02-13T17:22:43;102068.22;;;2.55;100.00
30463;BME280;17256;43.618;25.336;2023-02-13T17:29:35;102150.25;;;2.95;100.00
30463;BME280;17256;43.618;25.336;2023-02-13T17:33:27;102447.19;;;4.68;100.00
30463;BME280;17256;43.618;25.336;2023-02-13T17:41:48;102431.91;;;4.30;100.00
30463;BME280;17256;43.618;25.336;2023-02-13T17:45:37;102421.47;;;4.24;100.00
30463;BME280;17256;43.618;25.336;2023-02-13T17:49:20;102422.72;;;4.07;100.00
30463;BME280;17256;43.618;25.336;2023-02-13T17:52:38;101958.06;;;1.29;100.00
30463;BME280;17256;43.618;25.336;2023-02-13T17:56:32;102410.75;;;4.10;100.00
30463;BME280;17256;43.618;25.336;2023-02-13T18:25:04;102000.75;;;1.89;100.00
30463;BME280;17256;43.618;25.336;2023-02-13T18:27:52;102424.25;;;4.35;100.00
30463;BME280;17256;43.618;25.336;2023-02-13T18:31:52;102202.56;;;3.10;100.00
30463;BME280;17256;43.618;25.336;2023-02-13T18:34:41;101937.59;;;1.63;100.00
30463;BME280;17256;43.618;25.336;2023-02-13T18:37:12;102392.63;;;4.45;100.00
30463;BME280;17256;43.618;25.336;2023-02-13T18:40:10;102425.22;;;4.47;100.00
30463;BME280;17256;43.618;25.336;2023-02-13T18:43:25;101987.59;;;2.08;100.00
30463;BME280;17256;43.618;25.336;2023-02-13T18:46:47;101955.66;;;1.88;100.00
30463;BME280;17256;43.618;25.336;2023-02-13T18:49:41;102062.31;;;2.61;100.00
30463;BME280;17256;43.618;25.336;2023-02-13T18:52:09;102399.25;;;4.54;100.00
30463;BME280;17256;43.618;25.336;2023-02-13T19:10:51;102399.53;;;4.62;100.00
30463;BME280;17256;43.618;25.336;2023-02-13T19:14:42;102070.88;;;2.68;100.00
30463;BME280;17256;43.618;25.336;2023-02-13T19:17:29;102166.06;;;3.14;100.00
30463;BME280;17256;43.618;25.336;2023-02-13T19:20:40;102403.47;;;4.58;100.00
30463;BME280;17256;43.618;25.336;2023-02-13T19:27:07;102056.03;;;2.61;100.00
30463;BME280;17256;43.618;25.336;2023-02-13T20:37:02;102070.50;;;4.03;100.00
30463;BME280;17256;43.618;25.336;2023-02-13T20:40:08;101918.69;;;3.30;100.00
30463;BME280;17256;43.618;25.336;2023-02-13T20:48:00;102316.00;;;5.09;98.14
30463;BME280;17256;43.618;25.336;2023-02-13T20:51:50;102315.88;;;4.99;97.26
30463;BME280;17256;43.618;25.336;2023-02-13T21:03:11;102310.94;;;5.04;94.59
